createdAt,value
2019-05-18T00:00:29.534Z,99.90
2019-05-18T00:02:59.020Z,99.90
2019-05-18T00:05:28.488Z,99.90
2019-05-18T00:07:58.003Z,99.90
2019-05-18T00:10:27.490Z,99.90
2019-05-18T00:12:56.882Z,99.90
2019-05-18T00:15:26.316Z,99.90
2019-05-18T00:17:55.963Z,99.90
2019-05-18T00:20:25.438Z,99.90
2019-05-18T00:22:54.934Z,99.90
2019-05-18T00:25:24.408Z,99.90
2019-05-18T00:27:53.909Z,99.90
2019-05-18T00:30:23.411Z,99.90
2019-05-18T00:32:52.817Z,99.90
2019-05-18T00:35:22.214Z,99.90
2019-05-18T00:37:51.495Z,99.90
2019-05-18T00:40:20.968Z,99.90
2019-05-18T00:42:50.435Z,99.90
2019-05-18T00:45:19.866Z,99.90
2019-05-18T00:47:49.338Z,99.90
2019-05-18T00:50:18.794Z,99.90
2019-05-18T00:52:48.289Z,99.90
2019-05-18T00:55:17.759Z,99.90
2019-05-18T00:57:47.226Z,99.90
2019-05-18T01:00:16.737Z,99.90
2019-05-18T01:02:46.202Z,99.90
2019-05-18T01:05:15.683Z,99.90
2019-05-18T01:07:45.182Z,99.90
2019-05-18T01:10:14.582Z,99.90
2019-05-18T01:12:44.058Z,99.90
2019-05-18T01:15:13.551Z,99.90
2019-05-18T01:17:56.359Z,99.90
2019-05-18T01:20:14.275Z,99.90
2019-05-18T01:22:43.750Z,99.90
2019-05-18T01:25:13.226Z,99.90
2019-05-18T01:27:42.650Z,99.90
2019-05-18T01:30:12.128Z,99.90
2019-05-18T01:32:41.613Z,99.90
2019-05-18T01:35:11.431Z,99.90
2019-05-18T01:37:40.898Z,99.90
2019-05-18T01:40:10.363Z,99.90
2019-05-18T01:42:39.862Z,99.90
2019-05-18T01:45:16.732Z,99.90
2019-05-18T01:47:40.590Z,99.90
2019-05-18T01:50:10.110Z,99.90
2019-05-18T01:52:39.592Z,99.90
2019-05-18T01:55:09.203Z,99.90
2019-05-18T01:57:38.643Z,99.90
2019-05-18T02:00:08.926Z,99.90
2019-05-18T02:02:38.398Z,99.90
2019-05-18T02:05:08.112Z,99.90
2019-05-18T02:07:37.521Z,99.90
2019-05-18T02:10:06.997Z,99.90
2019-05-18T02:12:36.489Z,99.90
2019-05-18T02:15:06.851Z,99.90
2019-05-18T02:17:36.328Z,99.90
2019-05-18T02:20:06.135Z,99.90
2019-05-18T02:22:35.536Z,99.90
2019-05-18T02:25:06.995Z,99.90
2019-05-18T02:27:36.503Z,99.90
2019-05-18T02:30:09.220Z,99.90
2019-05-18T02:32:38.781Z,99.90
2019-05-18T02:35:08.178Z,99.90
2019-05-18T02:37:37.648Z,99.90
2019-05-18T02:40:07.717Z,99.90
2019-05-18T02:42:37.155Z,99.90
2019-05-18T02:45:08.181Z,99.90
2019-05-18T02:47:37.668Z,99.90
2019-05-18T02:50:08.693Z,99.90
2019-05-18T02:52:38.197Z,99.90
2019-05-18T02:55:07.673Z,99.90
2019-05-18T02:57:37.135Z,99.90
2019-05-18T03:00:11.136Z,99.90
2019-05-18T03:02:40.652Z,99.90
2019-05-18T03:05:10.111Z,99.90
2019-05-18T03:07:39.646Z,99.90
2019-05-18T03:10:09.296Z,99.90
2019-05-18T03:12:38.659Z,99.90
2019-05-18T03:15:08.009Z,99.90
2019-05-18T03:17:37.376Z,99.90
2019-05-18T03:20:09.100Z,99.90
2019-05-18T03:22:38.581Z,99.90
2019-05-18T03:25:08.082Z,99.90
2019-05-18T03:27:37.571Z,99.90
2019-05-18T03:30:08.592Z,99.90
2019-05-18T03:32:38.108Z,99.90
2019-05-18T03:35:07.524Z,99.90
2019-05-18T03:37:37.007Z,99.90
2019-05-18T03:40:09.645Z,99.90
2019-05-18T03:42:39.019Z,99.90
2019-05-18T03:45:08.890Z,99.90
2019-05-18T03:47:38.393Z,99.90
2019-05-18T03:50:09.350Z,99.90
2019-05-18T03:52:38.918Z,99.90
2019-05-18T03:55:08.385Z,99.90
2019-05-18T03:57:37.818Z,99.90
2019-05-18T04:00:08.461Z,99.90
2019-05-18T04:02:37.975Z,99.90
2019-05-18T04:05:08.053Z,99.90
2019-05-18T04:07:37.473Z,99.90
2019-05-18T04:10:10.478Z,99.90
2019-05-18T04:12:39.980Z,99.90
2019-05-18T04:15:10.184Z,99.90
2019-05-18T04:17:39.742Z,99.90
2019-05-18T04:20:10.242Z,99.90
2019-05-18T04:22:39.701Z,99.90
2019-05-18T04:25:09.485Z,99.90
2019-05-18T04:27:38.998Z,99.90
2019-05-18T04:30:08.676Z,99.90
2019-05-18T04:32:38.121Z,99.90
2019-05-18T04:35:07.851Z,99.90
2019-05-18T04:37:37.298Z,99.90
2019-05-18T04:40:07.394Z,99.90
2019-05-18T04:42:36.873Z,99.90
2019-05-18T04:45:06.946Z,99.90
2019-05-18T04:47:36.451Z,99.90
2019-05-18T04:50:07.935Z,99.90
2019-05-18T04:52:37.333Z,99.90
2019-05-18T04:55:07.337Z,99.90
2019-05-18T04:57:37.075Z,99.90
2019-05-18T05:00:08.263Z,99.90
2019-05-18T05:02:37.756Z,99.90
2019-05-18T05:05:07.153Z,99.90
2019-05-18T05:07:36.625Z,99.90
2019-05-18T05:10:09.558Z,99.90
2019-05-18T05:12:39.190Z,99.90
2019-05-18T05:15:08.600Z,99.90
2019-05-18T05:17:38.099Z,99.90
2019-05-18T05:20:19.274Z,99.90
2019-05-18T05:22:38.688Z,99.90
2019-05-18T05:25:08.180Z,99.90
2019-05-18T05:27:37.507Z,99.90
2019-05-18T05:30:08.410Z,99.90
2019-05-18T05:33:05.034Z,99.90
2019-05-18T05:35:37.497Z,99.90
2019-05-18T05:38:05.727Z,99.90
2019-05-18T05:40:35.200Z,99.90
2019-05-18T05:43:04.694Z,99.90
2019-05-18T05:45:34.103Z,99.90
2019-05-18T05:48:03.508Z,99.90
2019-05-18T05:50:35.820Z,99.90
2019-05-18T05:53:04.237Z,99.90
2019-05-18T05:55:33.632Z,99.90
2019-05-18T05:59:28.508Z,99.90
2019-05-18T06:01:57.925Z,99.90
2019-05-18T06:04:27.423Z,99.90
2019-05-18T06:06:56.796Z,99.90
2019-05-18T06:09:26.194Z,99.90
2019-05-18T06:11:55.626Z,99.90
2019-05-18T06:14:25.089Z,99.90
2019-05-18T06:16:54.574Z,99.90
2019-05-18T06:19:24.143Z,99.90
2019-05-18T06:21:53.553Z,99.90
2019-05-18T06:24:23.033Z,99.90
2019-05-18T06:26:52.531Z,99.90
2019-05-18T06:29:22.106Z,99.90
2019-05-18T06:31:51.570Z,99.90
2019-05-18T06:34:21.067Z,99.90
2019-05-18T06:36:50.558Z,99.90
2019-05-18T06:39:19.955Z,99.90
2019-05-18T06:41:49.453Z,99.90
2019-05-18T06:44:19.012Z,99.90
2019-05-18T06:46:48.494Z,99.90
2019-05-18T06:49:17.934Z,99.90
2019-05-18T06:51:47.423Z,99.90
2019-05-18T06:54:16.903Z,99.90
2019-05-18T06:56:46.353Z,99.90
2019-05-18T06:59:17.049Z,99.90
2019-05-18T07:01:46.538Z,99.90
2019-05-18T07:04:16.037Z,99.90
2019-05-18T07:06:45.511Z,99.90
2019-05-18T07:09:15.125Z,99.90
2019-05-18T07:11:44.651Z,99.90
2019-05-18T07:14:25.378Z,99.90
2019-05-18T07:16:45.403Z,99.90
2019-05-18T07:19:14.914Z,99.90
2019-05-18T07:21:44.366Z,99.90
2019-05-18T07:24:13.853Z,99.90
2019-05-18T07:26:43.367Z,99.90
2019-05-18T07:29:12.795Z,99.90
2019-05-18T07:31:42.227Z,99.90
2019-05-18T07:34:11.717Z,99.90
2019-05-18T07:36:41.142Z,99.90
2019-05-18T07:39:10.630Z,99.90
2019-05-18T07:41:46.740Z,99.90
2019-05-18T07:44:11.332Z,99.90
2019-05-18T07:46:40.806Z,99.90
2019-05-18T07:49:10.163Z,99.90
2019-05-18T07:51:39.573Z,99.90
2019-05-18T07:54:09.060Z,99.90
2019-05-18T07:56:38.554Z,99.90
2019-05-18T07:59:08.024Z,99.90
2019-05-18T08:01:37.515Z,99.90
2019-05-18T08:04:07.008Z,99.90
2019-05-18T08:06:36.496Z,99.90
2019-05-18T08:09:08.040Z,99.90
2019-05-18T08:11:37.484Z,99.90
2019-05-18T08:14:07.097Z,99.90
2019-05-18T08:16:36.594Z,99.90
2019-05-18T08:20:19.237Z,99.90
2019-05-18T08:22:48.656Z,99.90
2019-05-18T08:25:18.121Z,99.90
2019-05-18T08:27:47.547Z,99.90
2019-05-18T08:30:17.051Z,99.90
2019-05-18T08:32:46.533Z,99.90
2019-05-18T08:38:57.825Z,99.90
2019-05-18T08:41:27.237Z,99.90
2019-05-18T08:43:56.898Z,99.90
2019-05-18T08:46:26.241Z,99.90
2019-05-18T08:48:55.753Z,99.90
2019-05-18T08:51:25.160Z,99.90
2019-05-18T08:53:54.628Z,99.90
2019-05-18T08:56:24.053Z,99.90
2019-05-18T08:58:53.373Z,99.90
2019-05-18T09:01:22.786Z,99.90
2019-05-18T09:03:52.300Z,99.90
2019-05-18T09:06:21.778Z,99.90
2019-05-18T09:08:51.209Z,99.90
2019-05-18T09:11:20.721Z,99.90
2019-05-18T09:13:50.190Z,99.90
2019-05-18T09:16:19.673Z,99.90
2019-05-18T09:18:49.170Z,99.90
2019-05-18T09:21:18.574Z,99.90
2019-05-18T09:23:48.046Z,99.90
2019-05-18T09:26:17.553Z,99.90
2019-05-18T09:28:47.033Z,99.90
2019-05-18T09:31:16.497Z,99.90
2019-05-18T09:33:46.007Z,99.90
2019-05-18T09:36:15.506Z,99.90
2019-05-18T09:38:44.979Z,99.90
2019-05-18T09:41:14.515Z,99.90
2019-05-18T09:43:43.910Z,99.90
2019-05-18T09:46:13.391Z,99.90
2019-05-18T09:48:42.831Z,99.90
2019-05-18T09:51:12.333Z,99.90
2019-05-18T09:53:51.290Z,99.90
2019-05-18T09:56:13.036Z,99.90
2019-05-18T09:58:42.501Z,99.90
2019-05-18T10:01:11.985Z,99.90
2019-05-18T10:03:41.491Z,99.90
2019-05-18T10:06:10.917Z,99.90
2019-05-18T10:08:40.737Z,99.90
2019-05-18T10:11:10.229Z,99.90
2019-05-18T10:13:39.705Z,99.90
2019-05-18T10:16:09.105Z,99.90
2019-05-18T10:18:38.531Z,99.90
2019-05-18T10:21:08.107Z,99.90
2019-05-18T10:23:40.362Z,99.90
2019-05-18T10:26:08.829Z,99.90
2019-05-18T10:28:38.364Z,99.90
2019-05-18T10:31:07.794Z,99.90
2019-05-18T10:33:37.298Z,99.90
2019-05-18T10:36:06.713Z,99.90
2019-05-18T10:38:36.184Z,99.90
2019-05-18T10:41:05.678Z,99.90
2019-05-18T10:43:35.177Z,99.90
2019-05-18T10:46:04.657Z,99.90
2019-05-18T10:48:34.161Z,99.90
2019-05-18T10:51:05.565Z,99.90
2019-05-18T10:53:34.844Z,99.90
2019-05-18T10:56:04.338Z,99.90
2019-05-18T10:58:33.813Z,99.90
2019-05-18T11:01:03.285Z,99.90
2019-05-18T11:03:32.751Z,99.90
2019-05-18T11:06:02.667Z,99.90
2019-05-18T11:08:32.146Z,99.90
2019-05-18T11:11:01.571Z,99.90
2019-05-18T11:13:31.055Z,99.90
2019-05-18T11:16:00.546Z,99.90
2019-05-18T11:18:30.456Z,99.90
2019-05-18T11:21:00.053Z,99.90
2019-05-18T11:23:42.797Z,99.90
2019-05-18T11:26:00.897Z,99.90
2019-05-18T11:28:30.391Z,99.90
2019-05-18T11:30:59.852Z,99.90
2019-05-18T11:33:29.355Z,99.90
2019-05-18T11:35:58.833Z,99.90
2019-05-18T11:38:28.315Z,99.90
2019-05-18T11:40:57.749Z,99.90
2019-05-18T11:43:27.221Z,99.90
2019-05-18T11:45:56.620Z,99.90
2019-05-18T11:48:26.095Z,99.90
2019-05-18T11:50:55.571Z,99.90
2019-05-18T11:53:25.049Z,99.90
2019-05-18T11:55:54.550Z,99.90
2019-05-18T11:58:23.950Z,99.90
2019-05-18T12:00:53.419Z,99.90
2019-05-18T12:03:22.948Z,99.90
2019-05-18T12:05:52.431Z,99.90
2019-05-18T12:08:21.853Z,99.90
2019-05-18T12:10:52.275Z,99.90
2019-05-18T12:13:22.466Z,99.90
2019-05-18T12:15:52.052Z,99.90
2019-05-18T12:18:21.484Z,99.90
2019-05-18T12:20:50.886Z,99.90
2019-05-18T12:23:20.370Z,99.90
2019-05-18T12:25:50.847Z,99.90
2019-05-18T12:28:20.513Z,99.90
2019-05-18T12:30:50.012Z,99.90
2019-05-18T12:33:19.510Z,99.90
2019-05-18T12:35:48.904Z,99.90
2019-05-18T12:38:18.369Z,99.90
2019-05-18T12:40:47.809Z,99.90
2019-05-18T12:43:17.236Z,99.90
2019-05-18T12:45:46.708Z,99.90
2019-05-18T12:48:16.086Z,99.00
2019-05-18T12:50:45.559Z,96.20
2019-05-18T12:53:17.582Z,95.30
2019-05-18T12:55:46.252Z,95.70
2019-05-18T12:58:15.733Z,96.50
2019-05-18T13:00:45.209Z,94.90
2019-05-18T13:03:14.853Z,90.50
2019-05-18T13:05:44.353Z,87.20
2019-05-18T13:08:13.759Z,80.40
2019-05-18T13:10:43.227Z,72.40
2019-05-18T13:13:12.842Z,69.50
2019-05-18T13:15:42.246Z,71.00
2019-05-18T13:18:11.738Z,73.40
2019-05-18T13:20:41.161Z,75.30
2019-05-18T13:23:10.632Z,75.80
2019-05-18T13:25:40.110Z,80.60
2019-05-18T13:28:09.715Z,79.40
2019-05-18T13:30:39.267Z,81.50
2019-05-18T13:33:08.759Z,82.00
2019-05-18T13:35:38.670Z,81.50
2019-05-18T13:38:08.076Z,81.30
2019-05-18T13:40:37.487Z,78.10
2019-05-18T13:43:07.001Z,71.50
2019-05-18T13:45:36.482Z,65.20
2019-05-18T13:48:05.964Z,60.90
2019-05-18T13:50:35.455Z,57.80
2019-05-18T13:53:04.939Z,55.60
2019-05-18T13:55:34.422Z,54.70
2019-05-18T13:58:03.859Z,54.90
2019-05-18T14:00:33.331Z,55.50
2019-05-18T14:03:02.811Z,56.20
2019-05-18T14:05:32.344Z,55.00
2019-05-18T14:08:01.981Z,54.30
2019-05-18T14:10:31.461Z,52.80
2019-05-18T14:13:00.966Z,53.00
2019-05-18T14:15:30.435Z,52.50
2019-05-18T14:17:59.923Z,52.20
2019-05-18T14:20:30.305Z,49.20
2019-05-18T14:22:59.720Z,49.60
2019-05-18T14:25:29.190Z,50.20
2019-05-18T14:27:58.694Z,52.50
2019-05-18T14:30:28.169Z,53.10
2019-05-18T14:32:57.635Z,54.70
2019-05-18T14:35:27.146Z,54.70
2019-05-18T14:37:56.721Z,56.00
2019-05-18T14:40:26.187Z,55.90
2019-05-18T14:42:56.895Z,56.40
2019-05-18T14:45:26.360Z,57.60
2019-05-18T14:47:55.859Z,59.10
2019-05-18T14:50:25.364Z,59.90
2019-05-18T14:52:55.212Z,58.60
2019-05-18T14:55:33.290Z,59.50
2019-05-18T14:57:55.877Z,58.10
2019-05-18T15:00:25.349Z,57.60
2019-05-18T15:02:55.000Z,57.30
2019-05-18T15:05:24.494Z,57.40
2019-05-18T15:07:53.986Z,57.70
2019-05-18T15:10:23.492Z,56.00
2019-05-18T15:12:52.947Z,56.60
2019-05-18T15:15:22.311Z,56.80
2019-05-18T15:17:51.782Z,58.60
2019-05-18T15:20:21.306Z,58.20
2019-05-18T15:22:50.786Z,58.90
2019-05-18T15:25:20.347Z,58.50
2019-05-18T15:27:49.710Z,56.30
2019-05-18T15:30:19.131Z,57.90
2019-05-18T15:32:48.601Z,59.60
2019-05-18T15:35:18.048Z,59.50
2019-05-18T15:37:47.548Z,60.10
2019-05-18T15:40:17.504Z,62.90
2019-05-18T15:42:46.944Z,64.40
2019-05-18T15:45:17.628Z,65.70
2019-05-18T15:47:47.168Z,65.90
2019-05-18T15:50:16.658Z,67.30
2019-05-18T15:52:46.131Z,67.20
2019-05-18T15:55:15.548Z,68.40
2019-05-18T15:57:45.063Z,68.80
2019-05-18T16:00:14.539Z,67.30
2019-05-18T16:02:44.211Z,67.40
2019-05-18T16:05:13.709Z,69.10
2019-05-18T16:07:43.208Z,68.30
2019-05-18T16:10:14.232Z,69.90
2019-05-18T16:12:43.692Z,69.60
2019-05-18T16:15:13.265Z,69.80
2019-05-18T16:17:42.748Z,69.90
2019-05-18T16:20:12.182Z,70.80
2019-05-18T16:22:44.364Z,70.10
2019-05-18T16:25:12.876Z,71.40
2019-05-18T16:27:42.397Z,72.90
2019-05-18T16:30:12.665Z,74.40
2019-05-18T16:32:42.135Z,73.90
2019-05-18T16:35:11.571Z,73.30
2019-05-18T16:37:41.037Z,73.60
2019-05-18T16:40:10.959Z,73.80
2019-05-18T16:42:40.481Z,74.80
2019-05-18T16:45:11.501Z,75.80
2019-05-18T16:47:40.962Z,76.40
2019-05-18T16:50:10.457Z,77.10
2019-05-18T16:52:41.031Z,77.80
2019-05-18T16:55:10.630Z,78.30
2019-05-18T16:57:40.168Z,80.10
2019-05-18T17:00:15.650Z,79.80
2019-05-18T17:02:44.479Z,80.60
2019-05-18T17:05:14.085Z,81.60
2019-05-18T17:07:44.111Z,80.90
2019-05-18T17:10:13.584Z,81.80
2019-05-18T17:12:43.181Z,82.30
2019-05-18T17:15:12.574Z,82.40
2019-05-18T17:17:41.979Z,83.30
2019-05-18T17:20:11.506Z,84.20
2019-05-18T17:22:40.916Z,85.20
2019-05-18T17:25:10.392Z,86.00
2019-05-18T17:27:39.894Z,86.00
2019-05-18T17:30:09.298Z,86.80
2019-05-18T17:34:07.238Z,86.40
2019-05-18T17:36:36.720Z,87.10
2019-05-18T17:39:07.413Z,87.30
2019-05-18T17:41:36.904Z,87.30
2019-05-18T17:44:06.299Z,88.30
2019-05-18T17:46:35.814Z,87.80
2019-05-18T17:49:05.298Z,89.60
2019-05-18T17:51:34.798Z,89.70
2019-05-18T17:55:26.536Z,90.10
2019-05-18T17:57:56.131Z,90.70
2019-05-18T18:00:25.643Z,90.70
2019-05-18T18:02:55.062Z,91.20
2019-05-18T18:05:24.390Z,91.00
2019-05-18T18:07:55.661Z,91.50
2019-05-18T18:10:25.013Z,92.10
2019-05-18T18:12:54.470Z,92.10
2019-05-18T18:15:23.923Z,92.30
2019-05-18T18:17:53.390Z,92.80
2019-05-18T18:20:22.876Z,92.60
2019-05-18T18:22:52.383Z,93.00
2019-05-18T18:25:21.804Z,93.60
2019-05-18T18:27:51.210Z,93.70
2019-05-18T18:30:20.733Z,94.20
2019-05-18T18:32:50.208Z,94.00
2019-05-18T18:35:19.657Z,94.50
2019-05-18T18:37:49.160Z,94.80
2019-05-18T18:40:18.581Z,95.20
2019-05-18T18:42:48.125Z,95.60
2019-05-18T18:45:17.687Z,96.10
2019-05-18T18:47:47.277Z,96.20
2019-05-18T18:50:17.259Z,96.80
2019-05-18T18:52:46.822Z,97.20
2019-05-18T18:55:16.298Z,97.40
2019-05-18T18:57:45.777Z,97.70
2019-05-18T19:00:16.392Z,97.70
2019-05-18T19:02:45.789Z,98.20
2019-05-18T19:05:15.284Z,98.60
2019-05-18T19:07:44.780Z,99.20
2019-05-18T19:10:14.261Z,99.50
2019-05-18T19:12:43.713Z,99.90
2019-05-18T19:15:13.308Z,99.90
2019-05-18T19:17:42.780Z,99.90
2019-05-18T19:20:12.261Z,99.90
2019-05-18T19:22:41.741Z,99.90
2019-05-18T19:25:12.225Z,99.90
2019-05-18T19:27:53.975Z,99.90
2019-05-18T19:30:12.879Z,99.90
2019-05-18T19:32:42.343Z,99.90
2019-05-18T19:35:11.851Z,99.90
2019-05-18T19:37:41.359Z,99.90
2019-05-18T19:40:10.831Z,99.90
2019-05-18T19:42:40.337Z,99.90
2019-05-18T19:45:10.928Z,99.90
2019-05-18T19:47:40.465Z,99.90
2019-05-18T19:50:09.931Z,99.90
2019-05-18T19:52:39.661Z,99.90
2019-05-18T19:55:09.533Z,99.90
2019-05-18T19:57:39.090Z,99.90
2019-05-18T20:00:10.045Z,99.90
2019-05-18T20:02:39.782Z,99.90
2019-05-18T20:05:09.765Z,99.90
2019-05-18T20:07:39.500Z,99.90
2019-05-18T20:10:09.670Z,99.90
2019-05-18T20:12:39.186Z,99.90
2019-05-18T20:15:09.965Z,99.90
2019-05-18T20:17:39.568Z,99.90
2019-05-18T20:20:10.880Z,99.90
2019-05-18T20:22:40.579Z,99.90
2019-05-18T20:25:10.277Z,99.90
2019-05-18T20:27:39.807Z,99.90
2019-05-18T20:30:09.309Z,99.90
2019-05-18T20:32:38.740Z,99.90
2019-05-18T20:35:08.257Z,99.90
2019-05-18T20:37:37.618Z,99.90
2019-05-18T20:40:07.323Z,99.90
2019-05-18T20:42:37.694Z,99.90
2019-05-18T20:45:07.589Z,99.90
2019-05-18T20:47:37.150Z,99.90
2019-05-18T20:50:07.040Z,99.90
2019-05-18T20:52:36.599Z,99.90
2019-05-18T20:55:06.438Z,99.90
2019-05-18T20:57:35.921Z,99.90
2019-05-18T21:00:06.521Z,99.90
2019-05-18T21:02:35.996Z,99.90
2019-05-18T21:05:06.554Z,99.90
2019-05-18T21:07:36.162Z,99.90
2019-05-18T21:10:08.101Z,99.90
2019-05-18T21:12:37.580Z,99.90
2019-05-18T21:15:09.897Z,99.90
2019-05-18T21:17:39.448Z,99.90
2019-05-18T21:20:08.933Z,99.90
2019-05-18T21:22:38.427Z,99.90
2019-05-18T21:25:07.915Z,99.90
2019-05-18T21:27:37.404Z,99.90
2019-05-18T21:30:07.399Z,99.90
2019-05-18T21:32:36.876Z,99.90
2019-05-18T21:35:07.741Z,99.90
2019-05-18T21:37:37.245Z,99.90
2019-05-18T21:40:07.730Z,99.90
2019-05-18T21:42:37.208Z,99.90
2019-05-18T21:45:08.719Z,99.90
2019-05-18T21:47:38.145Z,99.90
2019-05-18T21:50:08.132Z,99.90
2019-05-18T21:52:37.619Z,99.90
2019-05-18T21:55:07.903Z,99.90
2019-05-18T21:57:37.305Z,99.90
2019-05-18T22:00:07.899Z,99.90
2019-05-18T22:02:37.322Z,99.90
2019-05-18T22:05:06.790Z,99.90
2019-05-18T22:07:36.253Z,99.90
2019-05-18T22:10:24.514Z,99.90
2019-05-18T22:12:40.664Z,99.90
2019-05-18T22:15:10.245Z,99.90
2019-05-18T22:17:57.243Z,99.90
2019-05-18T22:20:26.769Z,99.90
2019-05-18T22:22:56.190Z,99.90
2019-05-18T22:25:25.586Z,99.90
2019-05-18T22:27:55.047Z,99.90
2019-05-18T22:30:24.510Z,99.90
2019-05-18T22:32:53.995Z,99.90
2019-05-18T22:35:23.515Z,99.90
2019-05-18T22:37:53.030Z,99.90
2019-05-18T22:40:22.691Z,99.90
2019-05-18T22:42:52.131Z,99.90
2019-05-18T22:45:21.715Z,99.90
2019-05-18T22:47:51.184Z,99.90
2019-05-18T22:50:20.701Z,99.90
2019-05-18T22:52:50.358Z,99.90
2019-05-18T22:55:19.828Z,99.90
2019-05-18T22:57:49.341Z,99.90
2019-05-18T23:00:19.015Z,99.90
2019-05-18T23:02:48.416Z,99.90
2019-05-18T23:05:17.923Z,99.90
2019-05-18T23:07:47.395Z,99.90
2019-05-18T23:10:16.853Z,99.90
2019-05-18T23:12:46.383Z,99.90
2019-05-18T23:15:15.843Z,99.90
2019-05-18T23:17:45.495Z,99.90
2019-05-18T23:20:14.927Z,99.90
2019-05-18T23:22:44.408Z,99.90
2019-05-18T23:25:13.897Z,99.90
2019-05-18T23:27:43.372Z,99.90
2019-05-18T23:30:12.768Z,99.90
2019-05-18T23:32:42.237Z,99.90
2019-05-18T23:35:11.706Z,99.90
2019-05-18T23:37:41.179Z,99.90
2019-05-18T23:40:10.689Z,99.90
2019-05-18T23:42:40.165Z,99.90
2019-05-18T23:45:10.340Z,99.90
2019-05-18T23:47:39.797Z,99.90
2019-05-18T23:50:09.257Z,99.90
2019-05-18T23:52:38.697Z,99.90
2019-05-18T23:55:08.164Z,99.90
2019-05-18T23:57:37.646Z,99.90
